createdAt,value
2022-08-18T00:01:05.682Z,41.68
2022-08-18T00:03:56.064Z,41.52
2022-08-18T00:06:20.003Z,41.24
2022-08-18T00:08:46.739Z,40.93
2022-08-18T00:11:13.453Z,41.23
2022-08-18T00:13:40.169Z,41.60
2022-08-18T00:16:07.122Z,41.77
2022-08-18T00:18:33.843Z,41.89
2022-08-18T00:21:02.191Z,41.20
2022-08-18T00:23:31.199Z,40.71
2022-08-18T00:25:59.475Z,41.00
2022-08-18T00:28:26.478Z,40.67
2022-08-18T00:30:53.947Z,40.40
2022-08-18T00:33:21.576Z,40.19
2022-08-18T00:35:48.619Z,40.36
2022-08-18T00:38:24.275Z,40.22
2022-08-18T00:40:53.749Z,40.79
2022-08-18T00:43:47.966Z,40.52
2022-08-18T00:46:18.132Z,41.15
2022-08-18T00:48:48.733Z,40.51
2022-08-18T00:51:21.274Z,40.50
2022-08-18T00:53:58.411Z,40.22
2022-08-18T00:56:35.560Z,40.21
2022-08-18T00:59:21.154Z,40.23
2022-08-18T01:01:50.388Z,40.42
2022-08-18T01:04:38.957Z,40.11
2022-08-18T01:07:16.148Z,39.87
2022-08-18T01:09:42.864Z,40.39
2022-08-18T01:12:20.808Z,40.71
2022-08-18T01:14:58.352Z,42.39
2022-08-18T01:17:45.794Z,43.26
2022-08-18T01:20:37.751Z,45.27
2022-08-18T01:23:13.097Z,45.12
2022-08-18T01:26:00.159Z,46.27
2022-08-18T01:28:28.842Z,47.45
2022-08-18T01:30:58.364Z,47.67
2022-08-18T01:33:30.276Z,47.26
2022-08-18T01:35:57.387Z,48.28
2022-08-18T01:38:24.977Z,46.88
2022-08-18T01:41:24.731Z,48.54
2022-08-18T01:43:39.341Z,48.84
2022-08-18T01:46:06.741Z,48.43
2022-08-18T01:48:35.727Z,48.12
2022-08-18T01:51:09.583Z,47.83
2022-08-18T01:53:37.909Z,48.59
2022-08-18T01:56:05.716Z,49.45
2022-08-18T01:58:34.004Z,49.62
2022-08-18T02:01:02.022Z,50.62
2022-08-18T02:03:34.852Z,50.87
2022-08-18T02:06:04.990Z,50.57
2022-08-18T02:08:31.776Z,50.07
2022-08-18T02:11:00.192Z,49.98
2022-08-18T02:13:27.093Z,49.30
2022-08-18T02:15:53.804Z,49.89
2022-08-18T02:18:41.534Z,50.56
2022-08-18T02:21:19.038Z,50.58
2022-08-18T02:23:52.938Z,50.30
2022-08-18T02:26:21.479Z,50.37
2022-08-18T02:28:48.161Z,50.01
2022-08-18T02:31:18.747Z,49.99
2022-08-18T02:33:51.969Z,49.80
2022-08-18T02:36:20.770Z,50.74
2022-08-18T02:38:54.789Z,50.57
2022-08-18T02:41:29.357Z,49.69
2022-08-18T02:43:57.520Z,50.55
2022-08-18T02:46:25.047Z,52.55
2022-08-18T02:48:57.444Z,53.57
2022-08-18T02:51:26.005Z,54.64
2022-08-18T02:53:53.876Z,55.07
2022-08-18T02:56:40.019Z,54.48
2022-08-18T02:59:12.135Z,54.77
2022-08-18T03:01:42.421Z,55.13
2022-08-18T03:04:11.598Z,54.99
2022-08-18T03:06:39.380Z,53.98
2022-08-18T03:09:07.983Z,56.08
2022-08-18T03:11:35.791Z,55.07
2022-08-18T03:14:05.267Z,54.75
2022-08-18T03:16:33.050Z,55.50
2022-08-18T03:19:01.520Z,55.48
2022-08-18T03:21:31.468Z,56.00
2022-08-18T03:24:00.985Z,55.68
2022-08-18T03:26:30.153Z,56.39
2022-08-18T03:28:59.935Z,56.77
2022-08-18T03:31:29.340Z,57.11
2022-08-18T03:33:59.699Z,56.41
2022-08-18T03:36:31.869Z,56.84
2022-08-18T03:39:01.676Z,57.64
2022-08-18T03:41:44.525Z,57.70
2022-08-18T03:44:15.780Z,57.31
2022-08-18T03:46:44.643Z,57.55
2022-08-18T03:49:12.445Z,57.90
2022-08-18T03:51:43.601Z,56.94
2022-08-18T03:54:13.123Z,57.75
2022-08-18T03:56:41.170Z,57.15
2022-08-18T03:59:12.940Z,57.25
2022-08-18T04:01:41.996Z,57.59
2022-08-18T04:04:16.267Z,57.96
2022-08-18T04:06:53.893Z,58.67
2022-08-18T04:09:22.451Z,58.26
2022-08-18T04:11:49.526Z,58.77
2022-08-18T04:14:19.371Z,58.03
2022-08-18T04:16:48.062Z,58.02
2022-08-18T04:19:26.960Z,58.79
2022-08-18T04:21:57.259Z,59.83
2022-08-18T04:24:25.984Z,59.93
2022-08-18T04:26:53.452Z,59.37
2022-08-18T04:29:23.661Z,58.91
2022-08-18T04:31:51.852Z,58.69
2022-08-18T04:34:20.597Z,58.92
2022-08-18T04:36:47.577Z,58.67
2022-08-18T04:39:14.392Z,59.50
2022-08-18T04:41:44.000Z,59.34
2022-08-18T04:44:12.441Z,60.24
2022-08-18T04:46:42.760Z,59.65
2022-08-18T04:49:11.936Z,59.62
2022-08-18T04:52:37.159Z,59.60
2022-08-18T04:54:30.478Z,59.81
2022-08-18T04:56:57.189Z,59.67
2022-08-18T04:59:24.944Z,59.27
2022-08-18T05:01:51.659Z,59.56
2022-08-18T05:04:18.421Z,59.90
2022-08-18T05:06:45.648Z,59.34
2022-08-18T05:09:16.917Z,59.76
2022-08-18T05:11:50.638Z,59.27
2022-08-18T05:14:18.554Z,59.78
2022-08-18T05:16:48.790Z,59.17
2022-08-18T05:19:21.871Z,60.23
2022-08-18T05:21:51.471Z,59.79
2022-08-18T05:24:20.721Z,60.10
2022-08-18T05:26:48.921Z,59.76
2022-08-18T05:29:19.036Z,59.19
2022-08-18T05:31:48.240Z,59.51
2022-08-18T05:34:16.266Z,58.85
2022-08-18T05:36:49.189Z,58.79
2022-08-18T05:39:21.801Z,59.30
2022-08-18T05:41:58.258Z,60.02
2022-08-18T05:44:28.424Z,59.75
2022-08-18T05:47:00.677Z,60.00
2022-08-18T05:49:27.990Z,60.17
2022-08-18T05:52:00.144Z,59.96
2022-08-18T05:54:59.251Z,60.09
2022-08-18T05:57:30.846Z,60.34
2022-08-18T05:59:57.909Z,61.46
2022-08-18T06:02:35.331Z,61.54
2022-08-18T06:05:20.143Z,61.67
2022-08-18T06:07:56.985Z,62.13
2022-08-18T06:10:24.051Z,61.68
2022-08-18T06:13:00.717Z,61.04
2022-08-18T06:15:59.810Z,60.59
2022-08-18T06:18:43.073Z,60.67
2022-08-18T06:21:38.943Z,59.84
2022-08-18T06:24:27.520Z,61.48
2022-08-18T06:27:23.360Z,61.41
2022-08-18T06:30:05.407Z,61.32
2022-08-18T06:32:34.863Z,61.87
2022-08-18T06:35:01.562Z,61.74
2022-08-18T06:37:59.029Z,61.93
2022-08-18T06:40:26.155Z,61.63
2022-08-18T06:42:53.108Z,61.60
2022-08-18T06:45:34.043Z,61.65
2022-08-18T06:48:15.926Z,61.28
2022-08-18T06:50:50.858Z,61.26
2022-08-18T06:53:26.745Z,61.13
2022-08-18T06:55:55.409Z,60.50
2022-08-18T06:58:30.285Z,61.64
2022-08-18T07:01:02.400Z,61.19
2022-08-18T07:03:46.174Z,61.23
2022-08-18T07:06:22.135Z,59.85
2022-08-18T07:08:51.827Z,60.38
2022-08-18T07:11:34.109Z,61.15
2022-08-18T07:14:25.472Z,59.53
2022-08-18T07:17:07.574Z,59.08
2022-08-18T07:19:34.377Z,58.72
2022-08-18T07:22:09.002Z,58.71
2022-08-18T07:24:40.054Z,56.93
2022-08-18T07:27:28.988Z,56.96
2022-08-18T07:30:31.085Z,57.65
2022-08-18T07:33:24.730Z,58.99
2022-08-18T07:36:03.349Z,57.79
2022-08-18T07:38:43.200Z,57.54
2022-08-18T07:41:22.284Z,57.05
2022-08-18T07:43:51.164Z,56.66
2022-08-18T07:46:23.650Z,55.89
2022-08-18T07:48:50.882Z,55.74
2022-08-18T07:51:19.421Z,56.24
2022-08-18T07:54:05.079Z,56.45
2022-08-18T07:56:50.258Z,56.54
2022-08-18T07:59:40.019Z,58.15
2022-08-18T08:02:12.632Z,56.87
2022-08-18T08:04:49.537Z,56.84
2022-08-18T08:07:30.884Z,56.55
2022-08-18T08:10:24.872Z,56.87
2022-08-18T08:13:36.889Z,56.99
2022-08-18T08:16:40.795Z,56.03
2022-08-18T08:19:16.538Z,57.50
2022-08-18T08:22:04.074Z,56.48
2022-08-18T08:24:33.843Z,55.21
2022-08-18T08:27:18.547Z,55.99
2022-08-18T08:30:10.854Z,56.31
2022-08-18T08:32:54.303Z,55.14
2022-08-18T08:35:49.100Z,55.76
2022-08-18T08:38:42.693Z,54.48
2022-08-18T08:41:25.702Z,54.71
2022-08-18T08:44:07.410Z,54.79
2022-08-18T08:46:43.361Z,54.17
2022-08-18T08:49:23.316Z,52.40
2022-08-18T08:51:57.845Z,51.15
2022-08-18T08:54:39.313Z,52.31
2022-08-18T08:57:08.955Z,52.27
2022-08-18T08:59:37.780Z,51.89
2022-08-18T09:02:46.809Z,52.11
2022-08-18T09:05:18.611Z,53.11
2022-08-18T09:08:24.398Z,53.09
2022-08-18T09:11:09.694Z,54.13
2022-08-18T09:13:55.145Z,53.84
2022-08-18T09:17:06.492Z,52.62
2022-08-18T09:19:45.409Z,52.27
2022-08-18T09:22:14.981Z,51.05
2022-08-18T09:24:51.078Z,49.84
2022-08-18T09:28:09.801Z,50.30
2022-08-18T09:30:42.985Z,51.15
2022-08-18T09:33:40.644Z,51.62
2022-08-18T09:36:52.441Z,50.10
2022-08-18T09:39:56.979Z,50.49
2022-08-18T09:43:09.521Z,49.76
2022-08-18T09:45:47.368Z,51.21
2022-08-18T09:54:12.295Z,44.96
2022-08-18T09:56:54.191Z,40.39
2022-08-18T09:59:35.029Z,38.54
2022-08-18T10:02:06.693Z,37.38
2022-08-18T10:04:51.513Z,37.68
2022-08-18T10:07:18.258Z,38.47
2022-08-18T10:11:01.027Z,39.45
2022-08-18T10:13:38.649Z,41.81
2022-08-18T10:16:31.165Z,40.66
2022-08-18T10:22:11.028Z,44.38
2022-08-18T10:24:53.963Z,45.93
2022-08-18T10:27:45.602Z,46.57
2022-08-18T10:30:57.462Z,47.23
2022-08-18T10:33:56.308Z,48.27
2022-08-18T10:36:40.109Z,49.56
2022-08-18T10:39:13.199Z,48.32
2022-08-18T10:41:54.307Z,47.32
2022-08-18T10:47:24.843Z,47.78
2022-08-18T10:49:53.162Z,48.37
2022-08-18T10:53:24.376Z,48.14
2022-08-18T10:55:53.669Z,48.63
2022-08-18T10:58:54.626Z,49.15
2022-08-18T11:01:59.450Z,49.67
2022-08-18T11:04:47.419Z,49.04
2022-08-18T11:07:30.894Z,48.19
2022-08-18T11:10:58.190Z,48.32
2022-08-18T11:13:31.358Z,48.96
2022-08-18T11:16:10.168Z,48.13
2022-08-18T11:18:45.702Z,47.95
2022-08-18T11:21:42.590Z,47.04
2022-08-18T11:24:15.862Z,46.68
2022-08-18T11:26:53.145Z,46.25
2022-08-18T11:29:29.259Z,44.67
2022-08-18T11:32:12.034Z,46.52
2022-08-18T11:34:52.899Z,47.52
2022-08-18T11:46:30.459Z,47.54
2022-08-18T11:49:00.745Z,46.92
2022-08-18T11:51:32.206Z,46.49
2022-08-18T11:54:12.964Z,46.08
2022-08-18T11:56:39.807Z,45.98
2022-08-18T11:59:54.705Z,45.19
2022-08-18T12:02:25.888Z,45.02
2022-08-18T12:05:03.267Z,45.74
2022-08-18T12:07:36.194Z,45.48
2022-08-18T12:10:26.129Z,46.09
2022-08-18T12:12:57.533Z,46.89
2022-08-18T12:18:28.890Z,46.83
2022-08-18T12:23:52.320Z,45.50
2022-08-18T12:26:38.199Z,44.99
2022-08-18T12:29:08.799Z,44.36
2022-08-18T12:31:42.755Z,45.22
2022-08-18T12:34:24.888Z,44.56
2022-08-18T12:36:56.872Z,44.33
2022-08-18T12:39:24.447Z,44.48
2022-08-18T12:41:51.305Z,45.01
2022-08-18T12:44:20.135Z,44.21
2022-08-18T12:46:47.614Z,43.32
2022-08-18T12:49:22.198Z,42.78
2022-08-18T12:51:50.450Z,42.56
2022-08-18T12:54:18.642Z,42.38
2022-08-18T12:56:51.615Z,42.64
2022-08-18T12:59:18.948Z,42.34
2022-08-18T13:01:46.433Z,42.76
2022-08-18T13:04:14.280Z,43.33
2022-08-18T13:06:59.453Z,42.73
2022-08-18T13:09:35.660Z,42.28
2022-08-18T13:12:17.212Z,41.51
2022-08-18T13:14:45.295Z,41.47
2022-08-18T13:17:29.627Z,41.66
2022-08-18T13:20:13.762Z,40.24
2022-08-18T13:22:41.365Z,40.42
2022-08-18T13:25:11.703Z,40.22
2022-08-18T13:27:39.281Z,40.96
2022-08-18T13:30:16.623Z,40.22
2022-08-18T13:32:58.842Z,39.23
2022-08-18T13:35:30.123Z,38.54
2022-08-18T13:38:14.271Z,38.21
2022-08-18T13:40:47.175Z,39.10
2022-08-18T13:43:15.686Z,38.76
2022-08-18T13:45:47.499Z,38.59
2022-08-18T13:48:19.453Z,38.63
2022-08-18T13:50:46.452Z,38.03
2022-08-18T13:53:19.634Z,39.49
2022-08-18T13:55:47.685Z,39.25
2022-08-18T13:58:20.238Z,38.43
2022-08-18T14:00:52.407Z,38.01
2022-08-18T14:03:31.039Z,37.95
2022-08-18T14:06:13.150Z,37.51
2022-08-18T14:08:41.235Z,37.30
2022-08-18T14:11:08.890Z,36.21
2022-08-18T14:13:38.085Z,35.46
2022-08-18T14:16:05.436Z,35.68
2022-08-18T14:18:32.395Z,35.64
2022-08-18T14:21:22.932Z,35.87
2022-08-18T14:24:10.645Z,37.02
2022-08-18T14:26:50.908Z,37.16
2022-08-18T14:29:46.337Z,37.26
2022-08-18T14:32:07.199Z,37.44
2022-08-18T14:34:34.527Z,37.91
2022-08-18T14:37:02.825Z,37.72
2022-08-18T14:39:29.680Z,36.93
2022-08-18T14:41:58.453Z,37.09
2022-08-18T14:44:31.840Z,37.19
2022-08-18T14:46:59.195Z,36.14
2022-08-18T14:49:29.575Z,35.42
2022-08-18T14:52:00.611Z,35.72
2022-08-18T14:54:30.085Z,36.76
2022-08-18T14:57:00.811Z,36.67
2022-08-18T14:59:30.727Z,36.36
2022-08-18T15:02:01.470Z,36.22
2022-08-18T15:04:28.637Z,36.05
2022-08-18T15:06:55.942Z,36.09
2022-08-18T15:09:26.853Z,35.40
2022-08-18T15:11:56.255Z,34.73
2022-08-18T15:14:33.261Z,34.93
2022-08-18T15:17:11.734Z,34.96
2022-08-18T15:20:00.251Z,34.62
2022-08-18T15:22:45.974Z,34.03
2022-08-18T15:25:34.330Z,34.34
2022-08-18T15:28:01.591Z,34.65
2022-08-18T15:30:28.599Z,35.26
2022-08-18T15:32:55.576Z,35.95
2022-08-18T15:35:22.603Z,35.54
2022-08-18T15:37:51.446Z,36.09
2022-08-18T15:40:30.900Z,35.87
2022-08-18T15:43:09.809Z,36.62
2022-08-18T15:45:43.093Z,35.47
2022-08-18T15:48:23.960Z,35.63
2022-08-18T15:50:51.383Z,35.64
2022-08-18T15:53:21.450Z,35.29
2022-08-18T15:55:50.085Z,35.51
2022-08-18T15:58:18.283Z,35.78
2022-08-18T16:00:49.196Z,35.63
2022-08-18T16:03:17.926Z,35.36
2022-08-18T16:05:55.525Z,35.33
2022-08-18T16:08:24.926Z,35.18
2022-08-18T16:10:53.404Z,34.88
2022-08-18T16:13:20.379Z,34.84
2022-08-18T16:15:48.372Z,35.55
2022-08-18T16:18:18.058Z,34.82
2022-08-18T16:20:45.490Z,35.03
2022-08-18T16:23:13.734Z,34.76
2022-08-18T16:25:41.950Z,35.25
2022-08-18T16:28:09.858Z,34.43
2022-08-18T16:30:36.626Z,34.42
2022-08-18T16:33:06.647Z,34.90
2022-08-18T16:35:35.474Z,34.79
2022-08-18T16:38:08.744Z,34.35
2022-08-18T16:40:36.916Z,35.20
2022-08-18T16:43:04.957Z,34.80
2022-08-18T16:45:33.379Z,34.97
2022-08-18T16:48:00.661Z,34.78
2022-08-18T16:50:28.183Z,35.00
2022-08-18T16:52:55.292Z,35.60
2022-08-18T16:55:22.107Z,35.79
2022-08-18T16:58:07.387Z,35.84
2022-08-18T17:00:54.553Z,36.03
2022-08-18T17:03:40.034Z,35.79
2022-08-18T17:06:15.943Z,34.96
2022-08-18T17:08:43.432Z,34.63
2022-08-18T17:11:13.956Z,33.64
2022-08-18T17:13:41.964Z,35.22
2022-08-18T17:16:09.621Z,34.70
2022-08-18T17:18:37.102Z,34.88
2022-08-18T17:21:10.187Z,34.78
2022-08-18T17:23:39.062Z,35.79
2022-08-18T17:26:17.922Z,35.51
2022-08-18T17:28:52.638Z,34.79
2022-08-18T17:31:24.572Z,34.70
2022-08-18T17:33:57.190Z,34.61
2022-08-18T17:36:34.153Z,34.31
2022-08-18T17:39:05.189Z,34.33
2022-08-18T17:41:54.140Z,34.28
2022-08-18T17:44:20.848Z,34.20
2022-08-18T17:47:00.577Z,34.99
2022-08-18T17:50:26.425Z,34.52
2022-08-18T17:52:54.209Z,34.26
2022-08-18T17:55:27.077Z,34.67
2022-08-18T17:58:01.646Z,34.68
2022-08-18T18:00:31.269Z,33.50
2022-08-18T18:02:58.762Z,33.36
2022-08-18T18:05:36.639Z,33.01
2022-08-18T18:08:04.000Z,33.78
2022-08-18T18:10:37.724Z,33.07
2022-08-18T18:13:15.986Z,33.39
2022-08-18T18:15:56.187Z,33.71
2022-08-18T18:18:45.159Z,34.35
2022-08-18T18:21:15.781Z,34.35
2022-08-18T18:23:46.223Z,35.00
2022-08-18T18:26:19.644Z,34.83
2022-08-18T18:28:46.604Z,34.60
2022-08-18T18:31:22.340Z,34.59
2022-08-18T18:33:55.860Z,35.27
2022-08-18T18:36:36.672Z,35.21
2022-08-18T18:39:16.373Z,35.11
2022-08-18T18:41:43.641Z,35.90
2022-08-18T18:44:13.227Z,36.13
2022-08-18T18:46:44.249Z,36.15
2022-08-18T18:49:16.979Z,36.96
2022-08-18T18:51:55.828Z,37.08
2022-08-18T18:54:41.361Z,37.99
2022-08-18T18:57:15.851Z,37.73
2022-08-18T19:00:05.021Z,38.04
2022-08-18T19:02:44.263Z,38.51
2022-08-18T19:05:17.528Z,38.53
2022-08-18T19:07:53.186Z,38.94
2022-08-18T19:10:36.967Z,39.15
2022-08-18T19:13:33.089Z,39.67
2022-08-18T19:16:24.689Z,39.56
2022-08-18T19:19:35.026Z,39.87
2022-08-18T19:22:04.270Z,40.36
2022-08-18T19:24:40.727Z,40.55
2022-08-18T19:27:17.448Z,40.79
2022-08-18T19:29:53.480Z,40.88
2022-08-18T19:32:37.314Z,41.47
2022-08-18T19:35:11.956Z,41.73
2022-08-18T19:37:59.385Z,41.54
2022-08-18T19:40:51.828Z,41.86
2022-08-18T19:43:41.392Z,42.38
2022-08-18T19:46:36.924Z,42.95
2022-08-18T19:49:15.893Z,43.20
2022-08-18T19:51:44.623Z,43.23
2022-08-18T19:54:23.604Z,43.39
2022-08-18T19:57:03.701Z,43.63
2022-08-18T19:59:47.836Z,43.66
2022-08-18T20:02:35.033Z,44.35
2022-08-18T20:05:44.174Z,45.46
2022-08-18T20:09:00.478Z,45.18
2022-08-18T20:11:54.757Z,44.86
2022-08-18T20:14:21.865Z,44.72
2022-08-18T20:17:10.637Z,44.50
2022-08-18T20:19:45.390Z,44.57
2022-08-18T20:22:30.249Z,44.54
2022-08-18T20:25:05.711Z,44.09
2022-08-18T20:27:41.191Z,44.17
2022-08-18T20:30:08.706Z,44.19
2022-08-18T20:32:36.312Z,44.31
2022-08-18T20:35:17.871Z,44.50
2022-08-18T20:37:44.984Z,44.56
2022-08-18T20:40:41.144Z,44.63
2022-08-18T20:43:28.718Z,44.67
2022-08-18T20:46:07.663Z,44.78
2022-08-18T20:48:51.561Z,45.05
2022-08-18T20:51:28.647Z,44.79
2022-08-18T20:54:03.849Z,44.54
2022-08-18T20:56:44.430Z,44.15
2022-08-18T20:59:13.889Z,44.93
2022-08-18T21:01:40.701Z,44.97
2022-08-18T21:04:08.269Z,45.21
2022-08-18T21:06:41.988Z,44.77
2022-08-18T21:09:10.372Z,44.97
2022-08-18T21:11:46.983Z,44.85
2022-08-18T21:14:24.712Z,45.58
2022-08-18T21:16:53.956Z,45.82
2022-08-18T21:19:24.933Z,45.92
2022-08-18T21:22:03.940Z,45.97
2022-08-18T21:24:37.061Z,46.04
2022-08-18T21:27:09.938Z,46.06
2022-08-18T21:29:47.083Z,46.45
2022-08-18T21:32:31.486Z,46.60
2022-08-18T21:35:10.892Z,46.86
2022-08-18T21:37:41.435Z,47.24
2022-08-18T21:40:08.554Z,46.87
2022-08-18T21:42:38.745Z,47.03
2022-08-18T21:45:06.853Z,46.34
2022-08-18T21:47:34.732Z,45.91
2022-08-18T21:50:12.982Z,46.10
2022-08-18T21:52:51.581Z,46.59
2022-08-18T21:55:35.705Z,45.84
2022-08-18T21:58:15.569Z,46.23
2022-08-18T22:00:43.359Z,46.32
2022-08-18T22:03:21.231Z,46.68
2022-08-18T22:05:59.488Z,47.24
2022-08-18T22:08:30.846Z,46.85
2022-08-18T22:12:00.868Z,46.21
2022-08-18T22:14:53.635Z,47.34
2022-08-18T22:17:40.113Z,48.20
2022-08-18T22:20:36.583Z,48.53
2022-08-18T22:23:30.726Z,48.98
2022-08-18T22:26:06.666Z,48.69
2022-08-18T22:28:33.725Z,48.48
2022-08-18T22:31:00.444Z,49.01
2022-08-18T22:33:28.205Z,48.74
2022-08-18T22:35:56.338Z,48.84
2022-08-18T22:38:26.804Z,49.07
2022-08-18T22:40:53.567Z,48.69
2022-08-18T22:43:20.239Z,49.41
2022-08-18T22:45:46.906Z,49.54
2022-08-18T22:48:14.253Z,50.24
2022-08-18T22:50:44.794Z,50.41
2022-08-18T22:53:13.577Z,50.84
2022-08-18T22:55:41.429Z,50.35
2022-08-18T22:58:08.837Z,50.39
2022-08-18T23:00:37.206Z,50.37
2022-08-18T23:03:06.444Z,50.93
2022-08-18T23:05:33.181Z,51.34
2022-08-18T23:07:59.870Z,50.51
2022-08-18T23:10:26.573Z,50.37
2022-08-18T23:12:53.397Z,50.77
2022-08-18T23:15:20.791Z,50.93
2022-08-18T23:17:48.023Z,50.90
2022-08-18T23:20:19.167Z,51.04
2022-08-18T23:22:47.967Z,50.24
2022-08-18T23:25:14.863Z,50.30
2022-08-18T23:27:42.742Z,49.86
2022-08-18T23:30:10.152Z,49.84
2022-08-18T23:32:36.894Z,50.64
2022-08-18T23:35:04.185Z,51.09
2022-08-18T23:37:31.516Z,51.21
2022-08-18T23:39:58.622Z,51.62
2022-08-18T23:42:25.448Z,51.90
2022-08-18T23:44:52.143Z,51.60
2022-08-18T23:47:20.835Z,51.30
2022-08-18T23:49:48.327Z,51.54
2022-08-18T23:52:15.299Z,51.72
2022-08-18T23:54:41.999Z,51.75
2022-08-18T23:57:08.790Z,52.54
2022-08-18T23:59:35.575Z,52.55
